Big Bear Station Historical Data
Daily Summary for March 3, 2019 Units:  Metric    English   Both
Next Day »
Daily Weekly Monthly Yearly Custom
  High: Low: Average:
Temperature: 6.7 °C -1.2 °C 1.8 °C
Dew Point: 2.9 °C -2.1 °C 0.4 °C
Humidity: 98% 71% 90%
Wind Speed: 14.3km/h 0km/h 3.2km/h
Wind Gust: -1607.7km/h - -
Wind- - SW
Pressure: 795 hPa 793 hPa -
Precipitation: 0 mm    
Historical Graphs
 
 
Tabular Data for March 3, 2019
Time Temperature Dew Point Pressure Wind Wind Speed Wind Gust Humidity Rainfall Rate (Hourly)
00:09 2.2 °C 1.8 °C 794.4 hPa WSW 6 km/h -1607.7 km/h 97% 0 mm
00:24 2 °C 1.4 °C 794.4 hPa NNW 7.6 km/h -1607.7 km/h 96% 0 mm
00:39 2.1 °C 1.2 °C 794.4 hPa NE 10.9 km/h -1607.7 km/h 94% 0 mm
00:55 2 °C 1.3 °C 794.4 hPa WNW 6 km/h -1607.7 km/h 95% 0 mm
01:10 1.9 °C 1.3 °C 794.7 hPa Calm   -1607.7 km/h 96% 0 mm
01:25 1.8 °C 1.2 °C 794.4 hPa SW 2.7 km/h -1607.7 km/h 96% 0 mm
01:40 1.7 °C 1.3 °C 794.4 hPa Calm   -1607.7 km/h 97% 0 mm
01:55 1.5 °C 0.9 °C 794 hPa Calm   -1607.7 km/h 96% 0 mm
02:11 1.5 °C 0.9 °C 794.4 hPa Calm   -1607.7 km/h 96% 0 mm
02:26 1.4 °C 0.8 °C 794.4 hPa NW 5.1 km/h -1607.7 km/h 96% 0 mm
02:41 1.3 °C 0.7 °C 794 hPa North 6 km/h -1607.7 km/h 96% 0 mm
02:56 1.2 °C 0.4 °C 794.4 hPa SW 3.5 km/h -1607.7 km/h 94% 0 mm
03:11 1 °C 0.3 °C 794 hPa Calm   -1607.7 km/h 95% 0 mm
03:27 0.9 °C 0.2 °C 794 hPa NW 1.8 km/h -1607.7 km/h 95% 0 mm
03:42 0.8 °C 0.1 °C 794 hPa Calm   -1607.7 km/h 95% 0 mm
03:57 0.6 °C 0.1 °C 794 hPa Calm   -1607.7 km/h 96% 0 mm
04:12 0.5 °C -0.1 °C 794 hPa Calm   -1607.7 km/h 96% 0 mm
04:27 0.4 °C -0.1 °C 794 hPa Calm   -1607.7 km/h 97% 0 mm
04:43 0.4 °C -0.1 °C 794 hPa South 3.5 km/h -1607.7 km/h 97% 0 mm
04:58 0.3 °C -0.2 °C 794 hPa Calm   -1607.7 km/h 97% 0 mm
05:13 0.1 °C -0.3 °C 794 hPa Calm   -1607.7 km/h 97% 0 mm
05:28 0.1 °C -0.2 °C 794 hPa Calm   -1607.7 km/h 98% 0 mm
05:44 -0.2 °C -0.5 °C 794 hPa Calm   -1607.7 km/h 98% 0 mm
05:59 -0.3 °C -0.6 °C 794 hPa Calm   -1607.7 km/h 98% 0 mm
06:14 -0.2 °C -0.5 °C 794 hPa Calm   -1607.7 km/h 98% 0 mm
06:29 -0.4 °C -0.7 °C 794 hPa Calm   -1607.7 km/h 98% 0 mm
06:44 -0.3 °C -0.7 °C 794 hPa Calm   -1607.7 km/h 97% 0 mm
07:00 -0.1 °C -0.7 °C 794 hPa Calm   -1607.7 km/h 96% 0 mm
07:15 0.1 °C -0.6 °C 794 hPa Calm   -1607.7 km/h 95% 0 mm
07:30 0 °C -0.7 °C 794.4 hPa Calm   -1607.7 km/h 95% 0 mm
07:45 0.8 °C -0.1 °C 794.4 hPa Calm   -1607.7 km/h 94% 0 mm
08:00 0.9 °C -0.4 °C 794.7 hPa Calm   -1607.7 km/h 91% 0 mm
08:16 1.2 °C -0.1 °C 794.7 hPa West 4.3 km/h -1607.7 km/h 91% 0 mm
08:31 1.6 °C 0 °C 794.7 hPa NW 5.1 km/h -1607.7 km/h 89% 0 mm
08:47 2 °C 0.1 °C 794.7 hPa NW 9.3 km/h -1607.7 km/h 87% 0 mm
09:02 2.4 °C 0.3 °C 794.7 hPa WNW 11.7 km/h -1607.7 km/h 86% 0 mm
09:17 2.8 °C 0.5 °C 795 hPa NNW 4.3 km/h -1607.7 km/h 85% 0 mm
09:33 3.2 °C 0.8 °C 795 hPa Calm   -1607.7 km/h 84% 0 mm
09:48 3.8 °C 1.2 °C 795 hPa West 5.1 km/h -1607.7 km/h 83% 0 mm
10:03 5.1 °C 1.4 °C 795 hPa Calm   -1607.7 km/h 77% 0 mm
10:18 5.7 °C 0.9 °C 794.7 hPa NW 5.1 km/h -1607.7 km/h 71% 0 mm
10:33 6.1 °C 1.4 °C 794.7 hPa NW 5.1 km/h -1607.7 km/h 72% 0 mm
10:54 6.7 °C 1.8 °C 794.7 hPa West 6 km/h -1607.7 km/h 71% 0 mm
11:09 6.6 °C 2.7 °C 794.7 hPa WNW 9.3 km/h -1607.7 km/h 76% 0 mm
12:27 6.3 °C 2.9 °C 794.4 hPa NNE 3.5 km/h -1607.7 km/h 79% 0 mm
12:42 6.6 °C 2.9 °C 794 hPa WNW 10.1 km/h -1607.7 km/h 77% 0 mm
12:57 6 °C 2.6 °C 794 hPa NW 8.5 km/h -1607.7 km/h 79% 0 mm
13:13 5.5 °C 2.8 °C 794 hPa Calm   -1607.7 km/h 83% 0 mm
13:28 5.8 °C 2.8 °C 793.3 hPa West 6 km/h -1607.7 km/h 81% 0 mm
13:43 5.2 °C 2.6 °C 793.3 hPa NNE 2.7 km/h -1607.7 km/h 83% 0 mm
13:58 5 °C 2.3 °C 793.3 hPa NNW 7.6 km/h -1607.7 km/h 83% 0 mm
14:14 5 °C 2.2 °C 793.3 hPa ESE 5.1 km/h -1607.7 km/h 82% 0 mm
14:29 5 °C 2.2 °C 794 hPa SSE 4.3 km/h -1607.7 km/h 82% 0 mm
14:45 4.4 °C 1.9 °C 794 hPa Calm   -1607.7 km/h 84% 0 mm
15:00 4.7 °C 1.9 °C 794 hPa Calm   -1607.7 km/h 82% 0 mm
15:15 5 °C 2.2 °C 793.7 hPa Calm   -1607.7 km/h 82% 0 mm
15:30 5.2 °C 2.2 °C 793.7 hPa Calm   -1607.7 km/h 81% 0 mm
15:46 4.3 °C 1.5 °C 793.7 hPa NNE 10.9 km/h -1607.7 km/h 82% 0 mm
16:01 4.1 °C 1.7 °C 793.7 hPa SSW 2.7 km/h -1607.7 km/h 84% 0 mm
16:16 3.5 °C 1.1 °C 793.3 hPa South 3.5 km/h -1607.7 km/h 84% 0 mm
16:31 3.8 °C 1.3 °C 793 hPa Calm   -1607.7 km/h 84% 0 mm
16:46 3.1 °C 0.8 °C 793 hPa WNW 2.7 km/h -1607.7 km/h 85% 0 mm
17:02 2.5 °C 0.7 °C 793 hPa NW 5.1 km/h -1607.7 km/h 88% 0 mm
17:17 2.1 °C 0.5 °C 793.3 hPa Calm   -1607.7 km/h 89% 0 mm
17:32 1.8 °C 0.2 °C 793.3 hPa South 4.3 km/h -1607.7 km/h 89% 0 mm
17:47 1.5 °C 0.1 °C 793 hPa NNW 14.3 km/h -1607.7 km/h 90% 0 mm
18:02 1.2 °C -0.1 °C 793.3 hPa NE 2.7 km/h -1607.7 km/h 91% 0 mm
18:18 1.1 °C -0.1 °C 793.3 hPa NNW 5.1 km/h -1607.7 km/h 92% 0 mm
18:33 0.9 °C -0.3 °C 793.3 hPa Calm   -1607.7 km/h 92% 0 mm
18:48 0.6 °C -0.4 °C 793.3 hPa SSE 3.5 km/h -1607.7 km/h 93% 0 mm
19:03 0.5 °C -0.3 °C 793 hPa SSE 1.8 km/h -1607.7 km/h 94% 0 mm
19:19 0.3 °C -0.6 °C 793.3 hPa Calm   -1607.7 km/h 94% 0 mm
19:34 0.1 °C -0.7 °C 793.3 hPa WNW 4.3 km/h -1607.7 km/h 94% 0 mm
19:49 0.1 °C -0.6 °C 793.3 hPa North 6 km/h -1607.7 km/h 95% 0 mm
20:05 0 °C -0.8 °C 793.7 hPa SW 4.3 km/h -1607.7 km/h 94% 0 mm
20:20 -0.2 °C -1.2 °C 793.3 hPa West 1.8 km/h -1607.7 km/h 93% 0 mm
20:35 0 °C -1 °C 793.3 hPa Calm   -1607.7 km/h 93% 0 mm
20:50 -0.1 °C -1.1 °C 793.3 hPa NNE 6.8 km/h -1607.7 km/h 93% 0 mm
21:06 -0.1 °C -1.1 °C 793.3 hPa North 6 km/h -1607.7 km/h 93% 0 mm
21:21 -0.3 °C -1 °C 793.3 hPa SE 6 km/h -1607.7 km/h 95% 0 mm
21:36 -0.4 °C -1.1 °C 793.3 hPa WNW 4.3 km/h -1607.7 km/h 95% 0 mm
21:52 -0.4 °C -1.1 °C 793.7 hPa West 3.5 km/h -1607.7 km/h 95% 0 mm
22:07 -0.6 °C -1.3 °C 793.3 hPa NNE 3.5 km/h -1607.7 km/h 95% 0 mm
22:22 -0.7 °C -1.4 °C 793.3 hPa West 3.5 km/h -1607.7 km/h 95% 0 mm
22:37 -0.6 °C -1.6 °C 793.3 hPa NNE 5.1 km/h -1607.7 km/h 93% 0 mm
22:53 -0.7 °C -1.7 °C 793.7 hPa South 5.1 km/h -1607.7 km/h 93% 0 mm
23:08 -0.6 °C -1.6 °C 793.3 hPa South 2.7 km/h -1607.7 km/h 93% 0 mm
23:23 -0.9 °C -1.7 °C 793.3 hPa Calm   -1607.7 km/h 94% 0 mm
23:38 -1.2 °C -2.1 °C 793.3 hPa Calm   -1607.7 km/h 94% 0 mm
23:53 -1.1 °C -1.8 °C 793.3 hPa WNW 4.3 km/h -1607.7 km/h 95% 0 mm
Big Bear CA Weather